sensor_id;sensor_type;location;lat;lon;timestamp;temperature;humidity
20560;DHT22;10438;51.454;6.718;2023-07-31T00:01:49;16.10;99.90
20560;DHT22;10438;51.454;6.718;2023-07-31T00:04:14;16.10;99.90
20560;DHT22;10438;51.454;6.718;2023-07-31T00:06:40;16.10;99.90
20560;DHT22;10438;51.454;6.718;2023-07-31T00:09:06;16.10;99.90
20560;DHT22;10438;51.454;6.718;2023-07-31T00:11:31;16.10;99.90
20560;DHT22;10438;51.454;6.718;2023-07-31T00:13:57;16.10;99.90
20560;DHT22;10438;51.454;6.718;2023-07-31T00:16:22;16.10;99.90
20560;DHT22;10438;51.454;6.718;2023-07-31T00:18:48;16.10;99.90
20560;DHT22;10438;51.454;6.718;2023-07-31T00:21:14;16.10;99.90
20560;DHT22;10438;51.454;6.718;2023-07-31T00:23:39;16.10;99.90
20560;DHT22;10438;51.454;6.718;2023-07-31T00:26:04;16.10;99.90
20560;DHT22;10438;51.454;6.718;2023-07-31T00:28:30;16.10;99.90
20560;DHT22;10438;51.454;6.718;2023-07-31T00:30:56;16.10;99.90
20560;DHT22;10438;51.454;6.718;2023-07-31T00:33:21;16.10;99.90
20560;DHT22;10438;51.454;6.718;2023-07-31T00:35:48;16.10;99.90
20560;DHT22;10438;51.454;6.718;2023-07-31T00:38:13;16.10;99.90
20560;DHT22;10438;51.454;6.718;2023-07-31T00:40:39;16.10;99.90
20560;DHT22;10438;51.454;6.718;2023-07-31T00:43:04;16.10;99.90
20560;DHT22;10438;51.454;6.718;2023-07-31T00:45:31;16.10;99.90
20560;DHT22;10438;51.454;6.718;2023-07-31T00:47:58;16.10;99.90
20560;DHT22;10438;51.454;6.718;2023-07-31T00:50:24;16.10;99.90
20560;DHT22;10438;51.454;6.718;2023-07-31T00:52:50;16.10;99.90
20560;DHT22;10438;51.454;6.718;2023-07-31T00:55:16;16.10;99.90
20560;DHT22;10438;51.454;6.718;2023-07-31T00:57:42;16.10;99.90
20560;DHT22;10438;51.454;6.718;2023-07-31T01:00:08;16.10;99.90
20560;DHT22;10438;51.454;6.718;2023-07-31T01:02:35;16.10;99.90
20560;DHT22;10438;51.454;6.718;2023-07-31T01:05:02;16.10;99.90
20560;DHT22;10438;51.454;6.718;2023-07-31T01:07:39;16.10;99.90
20560;DHT22;10438;51.454;6.718;2023-07-31T01:10:19;16.10;99.90
20560;DHT22;10438;51.454;6.718;2023-07-31T01:12:46;16.10;99.90
20560;DHT22;10438;51.454;6.718;2023-07-31T01:15:13;16.10;99.90
20560;DHT22;10438;51.454;6.718;2023-07-31T01:17:43;16.10;99.90
20560;DHT22;10438;51.454;6.718;2023-07-31T01:20:21;16.10;99.90
20560;DHT22;10438;51.454;6.718;2023-07-31T01:23:16;16.10;99.90
20560;DHT22;10438;51.454;6.718;2023-07-31T01:31:13;16.10;99.90
20560;DHT22;10438;51.454;6.718;2023-07-31T01:33:40;16.10;99.90
20560;DHT22;10438;51.454;6.718;2023-07-31T01:36:06;16.10;99.90
20560;DHT22;10438;51.454;6.718;2023-07-31T01:38:32;16.10;99.90
20560;DHT22;10438;51.454;6.718;2023-07-31T01:40:57;16.10;99.90
20560;DHT22;10438;51.454;6.718;2023-07-31T01:43:23;16.10;99.90
20560;DHT22;10438;51.454;6.718;2023-07-31T01:45:49;16.10;99.90
20560;DHT22;10438;51.454;6.718;2023-07-31T01:48:15;16.10;99.90
20560;DHT22;10438;51.454;6.718;2023-07-31T01:50:40;16.10;99.90
20560;DHT22;10438;51.454;6.718;2023-07-31T01:53:06;16.10;99.90
20560;DHT22;10438;51.454;6.718;2023-07-31T01:55:31;16.10;99.90
20560;DHT22;10438;51.454;6.718;2023-07-31T01:57:57;16.10;99.90
20560;DHT22;10438;51.454;6.718;2023-07-31T02:00:22;16.10;99.90
20560;DHT22;10438;51.454;6.718;2023-07-31T02:02:48;16.10;99.90
20560;DHT22;10438;51.454;6.718;2023-07-31T02:05:13;16.10;99.90
20560;DHT22;10438;51.454;6.718;2023-07-31T02:07:39;16.10;99.90
20560;DHT22;10438;51.454;6.718;2023-07-31T02:10:05;16.10;99.90
20560;DHT22;10438;51.454;6.718;2023-07-31T02:12:30;16.10;99.90
20560;DHT22;10438;51.454;6.718;2023-07-31T02:14:57;16.10;99.90
20560;DHT22;10438;51.454;6.718;2023-07-31T02:17:23;16.10;99.90
20560;DHT22;10438;51.454;6.718;2023-07-31T02:19:48;16.10;99.90
20560;DHT22;10438;51.454;6.718;2023-07-31T02:22:14;16.20;99.90
20560;DHT22;10438;51.454;6.718;2023-07-31T02:24:39;16.20;99.90
20560;DHT22;10438;51.454;6.718;2023-07-31T02:27:05;16.20;99.90
20560;DHT22;10438;51.454;6.718;2023-07-31T02:29:30;16.20;99.90
20560;DHT22;10438;51.454;6.718;2023-07-31T02:31:56;16.20;99.90
20560;DHT22;10438;51.454;6.718;2023-07-31T02:34:21;16.20;99.90
20560;DHT22;10438;51.454;6.718;2023-07-31T02:36:47;16.20;99.90
20560;DHT22;10438;51.454;6.718;2023-07-31T02:39:13;16.20;99.90
20560;DHT22;10438;51.454;6.718;2023-07-31T02:41:38;16.30;99.90
20560;DHT22;10438;51.454;6.718;2023-07-31T02:44:04;16.30;99.90
20560;DHT22;10438;51.454;6.718;2023-07-31T02:46:29;16.30;99.90
20560;DHT22;10438;51.454;6.718;2023-07-31T02:48:55;16.20;99.90
20560;DHT22;10438;51.454;6.718;2023-07-31T02:51:20;16.30;99.90
20560;DHT22;10438;51.454;6.718;2023-07-31T02:53:47;16.30;99.90
20560;DHT22;10438;51.454;6.718;2023-07-31T02:56:13;16.30;99.90
20560;DHT22;10438;51.454;6.718;2023-07-31T02:58:38;16.20;99.90
20560;DHT22;10438;51.454;6.718;2023-07-31T03:01:04;16.30;99.90
20560;DHT22;10438;51.454;6.718;2023-07-31T03:03:29;16.30;99.90
20560;DHT22;10438;51.454;6.718;2023-07-31T03:05:55;16.30;99.90
20560;DHT22;10438;51.454;6.718;2023-07-31T03:08:20;16.30;99.90
20560;DHT22;10438;51.454;6.718;2023-07-31T03:10:46;16.30;99.90
20560;DHT22;10438;51.454;6.718;2023-07-31T03:13:12;16.40;99.90
20560;DHT22;10438;51.454;6.718;2023-07-31T03:15:37;16.40;99.90
20560;DHT22;10438;51.454;6.718;2023-07-31T03:18:03;16.40;99.90
20560;DHT22;10438;51.454;6.718;2023-07-31T03:20:28;16.40;99.90
20560;DHT22;10438;51.454;6.718;2023-07-31T03:22:54;16.40;99.90
20560;DHT22;10438;51.454;6.718;2023-07-31T03:25:19;16.40;99.90
20560;DHT22;10438;51.454;6.718;2023-07-31T03:27:45;16.40;99.90
20560;DHT22;10438;51.454;6.718;2023-07-31T03:30:10;16.40;99.90
20560;DHT22;10438;51.454;6.718;2023-07-31T03:32:36;16.40;99.90
20560;DHT22;10438;51.454;6.718;2023-07-31T03:35:02;16.40;99.90
20560;DHT22;10438;51.454;6.718;2023-07-31T03:37:27;16.50;99.90
20560;DHT22;10438;51.454;6.718;2023-07-31T03:39:53;16.50;99.90
20560;DHT22;10438;51.454;6.718;2023-07-31T03:42:18;16.50;99.90
20560;DHT22;10438;51.454;6.718;2023-07-31T03:44:44;16.60;99.90
20560;DHT22;10438;51.454;6.718;2023-07-31T03:47:10;16.60;99.90
20560;DHT22;10438;51.454;6.718;2023-07-31T03:49:36;16.60;99.90
20560;DHT22;10438;51.454;6.718;2023-07-31T03:52:02;16.60;99.90
20560;DHT22;10438;51.454;6.718;2023-07-31T03:54:27;16.60;99.90
20560;DHT22;10438;51.454;6.718;2023-07-31T03:56:53;16.60;99.90
20560;DHT22;10438;51.454;6.718;2023-07-31T03:59:18;16.60;99.90
20560;DHT22;10438;51.454;6.718;2023-07-31T04:01:44;16.70;99.90
20560;DHT22;10438;51.454;6.718;2023-07-31T04:04:09;16.70;99.90
20560;DHT22;10438;51.454;6.718;2023-07-31T04:06:35;16.70;99.90
20560;DHT22;10438;51.454;6.718;2023-07-31T04:09:01;16.70;99.90
20560;DHT22;10438;51.454;6.718;2023-07-31T04:11:27;16.80;99.90
20560;DHT22;10438;51.454;6.718;2023-07-31T04:13:52;16.80;99.90
20560;DHT22;10438;51.454;6.718;2023-07-31T04:16:18;16.80;99.90
20560;DHT22;10438;51.454;6.718;2023-07-31T04:18:43;16.80;99.90
20560;DHT22;10438;51.454;6.718;2023-07-31T04:21:09;16.80;99.90
20560;DHT22;10438;51.454;6.718;2023-07-31T04:23:35;16.80;99.90
20560;DHT22;10438;51.454;6.718;2023-07-31T04:26:01;16.80;99.90
20560;DHT22;10438;51.454;6.718;2023-07-31T04:28:26;16.90;99.90
20560;DHT22;10438;51.454;6.718;2023-07-31T04:30:52;16.90;99.90
20560;DHT22;10438;51.454;6.718;2023-07-31T04:33:18;16.90;99.90
20560;DHT22;10438;51.454;6.718;2023-07-31T04:35:52;16.90;99.90
20560;DHT22;10438;51.454;6.718;2023-07-31T04:38:19;16.90;99.90
20560;DHT22;10438;51.454;6.718;2023-07-31T04:40:44;16.90;99.90
20560;DHT22;10438;51.454;6.718;2023-07-31T04:43:10;17.00;99.90
20560;DHT22;10438;51.454;6.718;2023-07-31T04:45:35;17.00;99.90
20560;DHT22;10438;51.454;6.718;2023-07-31T04:48:01;17.00;99.90
20560;DHT22;10438;51.454;6.718;2023-07-31T04:50:26;17.00;99.90
20560;DHT22;10438;51.454;6.718;2023-07-31T04:52:52;17.00;99.90
20560;DHT22;10438;51.454;6.718;2023-07-31T04:55:17;17.10;99.90
20560;DHT22;10438;51.454;6.718;2023-07-31T04:57:43;17.10;99.90
20560;DHT22;10438;51.454;6.718;2023-07-31T05:00:09;17.10;99.90
20560;DHT22;10438;51.454;6.718;2023-07-31T05:02:34;17.10;99.90
20560;DHT22;10438;51.454;6.718;2023-07-31T05:05:00;17.10;99.90
20560;DHT22;10438;51.454;6.718;2023-07-31T05:07:25;17.10;99.90
20560;DHT22;10438;51.454;6.718;2023-07-31T05:09:51;17.00;99.90
20560;DHT22;10438;51.454;6.718;2023-07-31T05:12:16;17.00;99.90
20560;DHT22;10438;51.454;6.718;2023-07-31T05:14:42;17.00;99.90
20560;DHT22;10438;51.454;6.718;2023-07-31T05:17:07;17.00;99.90
20560;DHT22;10438;51.454;6.718;2023-07-31T05:19:33;17.10;99.90
20560;DHT22;10438;51.454;6.718;2023-07-31T05:21:58;17.10;99.90
20560;DHT22;10438;51.454;6.718;2023-07-31T05:24:24;17.10;99.90
20560;DHT22;10438;51.454;6.718;2023-07-31T05:26:49;17.20;99.90
20560;DHT22;10438;51.454;6.718;2023-07-31T05:29:15;17.30;99.90
20560;DHT22;10438;51.454;6.718;2023-07-31T05:31:41;17.30;99.90
20560;DHT22;10438;51.454;6.718;2023-07-31T05:34:07;17.30;99.90
20560;DHT22;10438;51.454;6.718;2023-07-31T05:36:33;17.40;99.90
20560;DHT22;10438;51.454;6.718;2023-07-31T05:38:58;17.40;99.90
20560;DHT22;10438;51.454;6.718;2023-07-31T05:41:24;17.40;99.90
20560;DHT22;10438;51.454;6.718;2023-07-31T05:43:49;17.40;99.90
20560;DHT22;10438;51.454;6.718;2023-07-31T05:46:15;17.40;99.90
20560;DHT22;10438;51.454;6.718;2023-07-31T05:48:40;17.40;99.90
20560;DHT22;10438;51.454;6.718;2023-07-31T05:51:06;17.30;99.90
20560;DHT22;10438;51.454;6.718;2023-07-31T05:53:32;17.40;99.90
20560;DHT22;10438;51.454;6.718;2023-07-31T05:55:58;17.40;99.90
20560;DHT22;10438;51.454;6.718;2023-07-31T05:58:23;17.30;99.90
20560;DHT22;10438;51.454;6.718;2023-07-31T06:00:49;17.30;99.90
20560;DHT22;10438;51.454;6.718;2023-07-31T06:03:14;17.30;99.90
20560;DHT22;10438;51.454;6.718;2023-07-31T06:05:40;17.30;99.90
20560;DHT22;10438;51.454;6.718;2023-07-31T06:08:05;17.30;99.90
20560;DHT22;10438;51.454;6.718;2023-07-31T06:10:31;17.40;99.90
20560;DHT22;10438;51.454;6.718;2023-07-31T06:12:56;17.40;99.90
20560;DHT22;10438;51.454;6.718;2023-07-31T06:15:22;17.40;99.90
20560;DHT22;10438;51.454;6.718;2023-07-31T06:17:48;17.40;99.90
20560;DHT22;10438;51.454;6.718;2023-07-31T06:20:13;17.30;99.90
20560;DHT22;10438;51.454;6.718;2023-07-31T06:22:39;17.20;99.90
20560;DHT22;10438;51.454;6.718;2023-07-31T06:25:05;17.10;99.90
20560;DHT22;10438;51.454;6.718;2023-07-31T06:27:30;17.10;99.90
20560;DHT22;10438;51.454;6.718;2023-07-31T06:29:56;17.10;99.90
20560;DHT22;10438;51.454;6.718;2023-07-31T06:32:21;17.00;99.90
20560;DHT22;10438;51.454;6.718;2023-07-31T06:34:47;17.00;99.90
20560;DHT22;10438;51.454;6.718;2023-07-31T06:37:13;17.00;99.90
20560;DHT22;10438;51.454;6.718;2023-07-31T06:39:38;17.00;99.90
20560;DHT22;10438;51.454;6.718;2023-07-31T06:42:04;16.90;99.90
20560;DHT22;10438;51.454;6.718;2023-07-31T06:44:29;16.90;99.90
20560;DHT22;10438;51.454;6.718;2023-07-31T06:46:55;16.90;99.90
20560;DHT22;10438;51.454;6.718;2023-07-31T06:49:20;16.90;99.90
20560;DHT22;10438;51.454;6.718;2023-07-31T06:51:46;16.90;99.90
20560;DHT22;10438;51.454;6.718;2023-07-31T06:54:11;16.90;99.90
20560;DHT22;10438;51.454;6.718;2023-07-31T06:56:37;16.90;99.90
20560;DHT22;10438;51.454;6.718;2023-07-31T06:59:03;16.90;99.90
20560;DHT22;10438;51.454;6.718;2023-07-31T07:01:29;16.90;99.90
20560;DHT22;10438;51.454;6.718;2023-07-31T07:03:54;16.80;99.90
20560;DHT22;10438;51.454;6.718;2023-07-31T07:06:21;16.80;99.90
20560;DHT22;10438;51.454;6.718;2023-07-31T07:08:48;16.80;99.90
20560;DHT22;10438;51.454;6.718;2023-07-31T07:11:13;16.80;99.90
20560;DHT22;10438;51.454;6.718;2023-07-31T07:13:38;16.80;99.90
20560;DHT22;10438;51.454;6.718;2023-07-31T07:16:04;16.70;99.90
20560;DHT22;10438;51.454;6.718;2023-07-31T07:18:30;16.70;99.90
20560;DHT22;10438;51.454;6.718;2023-07-31T07:20:56;16.70;99.90
20560;DHT22;10438;51.454;6.718;2023-07-31T07:23:23;16.70;99.90
20560;DHT22;10438;51.454;6.718;2023-07-31T07:25:48;16.60;99.90
20560;DHT22;10438;51.454;6.718;2023-07-31T07:28:14;16.60;99.90
20560;DHT22;10438;51.454;6.718;2023-07-31T07:30:40;16.60;99.90
20560;DHT22;10438;51.454;6.718;2023-07-31T07:33:05;16.60;99.90
20560;DHT22;10438;51.454;6.718;2023-07-31T07:35:35;16.60;99.90
20560;DHT22;10438;51.454;6.718;2023-07-31T07:38:02;16.60;99.90
20560;DHT22;10438;51.454;6.718;2023-07-31T07:40:28;16.60;99.90
20560;DHT22;10438;51.454;6.718;2023-07-31T07:42:53;16.60;99.90
20560;DHT22;10438;51.454;6.718;2023-07-31T07:45:19;16.50;99.90
20560;DHT22;10438;51.454;6.718;2023-07-31T07:47:44;16.50;99.90
20560;DHT22;10438;51.454;6.718;2023-07-31T07:50:10;16.50;99.90
20560;DHT22;10438;51.454;6.718;2023-07-31T07:52:35;16.50;99.90
20560;DHT22;10438;51.454;6.718;2023-07-31T07:55:01;16.40;99.90
20560;DHT22;10438;51.454;6.718;2023-07-31T07:57:26;16.40;99.90
20560;DHT22;10438;51.454;6.718;2023-07-31T07:59:52;16.30;99.90
20560;DHT22;10438;51.454;6.718;2023-07-31T08:02:18;16.30;99.90
20560;DHT22;10438;51.454;6.718;2023-07-31T08:04:43;16.30;99.90
20560;DHT22;10438;51.454;6.718;2023-07-31T08:07:11;16.40;99.90
20560;DHT22;10438;51.454;6.718;2023-07-31T08:09:37;16.40;99.90
20560;DHT22;10438;51.454;6.718;2023-07-31T08:12:03;16.40;99.90
20560;DHT22;10438;51.454;6.718;2023-07-31T08:14:29;16.40;99.90
20560;DHT22;10438;51.454;6.718;2023-07-31T08:16:55;16.40;99.90
20560;DHT22;10438;51.454;6.718;2023-07-31T08:19:21;16.40;99.90
20560;DHT22;10438;51.454;6.718;2023-07-31T08:21:46;16.40;99.90
20560;DHT22;10438;51.454;6.718;2023-07-31T08:24:12;16.30;99.90
20560;DHT22;10438;51.454;6.718;2023-07-31T08:26:37;16.30;99.90
20560;DHT22;10438;51.454;6.718;2023-07-31T08:29:03;16.30;99.90
20560;DHT22;10438;51.454;6.718;2023-07-31T08:31:28;16.30;99.90
20560;DHT22;10438;51.454;6.718;2023-07-31T08:33:55;16.40;99.90
20560;DHT22;10438;51.454;6.718;2023-07-31T08:36:20;16.40;99.90
20560;DHT22;10438;51.454;6.718;2023-07-31T08:38:46;16.40;99.90
20560;DHT22;10438;51.454;6.718;2023-07-31T08:41:12;16.40;99.90
20560;DHT22;10438;51.454;6.718;2023-07-31T08:43:39;16.40;99.90
20560;DHT22;10438;51.454;6.718;2023-07-31T08:46:05;16.40;99.90
20560;DHT22;10438;51.454;6.718;2023-07-31T08:48:31;16.40;99.90
20560;DHT22;10438;51.454;6.718;2023-07-31T08:50:57;16.40;99.90
20560;DHT22;10438;51.454;6.718;2023-07-31T08:53:23;16.40;99.90
20560;DHT22;10438;51.454;6.718;2023-07-31T08:55:49;16.40;99.90
20560;DHT22;10438;51.454;6.718;2023-07-31T08:58:15;16.40;99.90
20560;DHT22;10438;51.454;6.718;2023-07-31T09:00:41;16.30;99.90
20560;DHT22;10438;51.454;6.718;2023-07-31T09:03:13;16.30;99.90
20560;DHT22;10438;51.454;6.718;2023-07-31T09:05:42;16.30;99.90
20560;DHT22;10438;51.454;6.718;2023-07-31T09:08:09;16.30;99.90
20560;DHT22;10438;51.454;6.718;2023-07-31T09:10:35;16.30;99.90
20560;DHT22;10438;51.454;6.718;2023-07-31T09:13:02;16.30;99.90
20560;DHT22;10438;51.454;6.718;2023-07-31T09:15:28;16.40;99.90
20560;DHT22;10438;51.454;6.718;2023-07-31T09:18:04;16.40;99.90
20560;DHT22;10438;51.454;6.718;2023-07-31T09:20:30;16.50;99.90
20560;DHT22;10438;51.454;6.718;2023-07-31T09:22:57;16.50;99.90
20560;DHT22;10438;51.454;6.718;2023-07-31T09:25:30;16.60;99.90
20560;DHT22;10438;51.454;6.718;2023-07-31T09:30:24;16.60;99.90
20560;DHT22;10438;51.454;6.718;2023-07-31T09:32:52;16.60;99.90
20560;DHT22;10438;51.454;6.718;2023-07-31T09:35:35;16.70;99.90
20560;DHT22;10438;51.454;6.718;2023-07-31T09:38:11;16.70;99.90
20560;DHT22;10438;51.454;6.718;2023-07-31T09:40:39;16.70;99.90
20560;DHT22;10438;51.454;6.718;2023-07-31T09:43:07;16.80;99.90
20560;DHT22;10438;51.454;6.718;2023-07-31T09:45:38;16.80;99.90
20560;DHT22;10438;51.454;6.718;2023-07-31T09:48:07;16.80;99.90
20560;DHT22;10438;51.454;6.718;2023-07-31T09:50:37;16.80;99.90
20560;DHT22;10438;51.454;6.718;2023-07-31T09:53:03;16.80;99.90
20560;DHT22;10438;51.454;6.718;2023-07-31T09:55:29;16.80;99.90
20560;DHT22;10438;51.454;6.718;2023-07-31T09:57:56;16.90;99.90
20560;DHT22;10438;51.454;6.718;2023-07-31T10:00:23;16.90;99.90
20560;DHT22;10438;51.454;6.718;2023-07-31T10:02:53;16.90;99.90
20560;DHT22;10438;51.454;6.718;2023-07-31T10:05:19;16.80;99.90
20560;DHT22;10438;51.454;6.718;2023-07-31T10:07:53;16.80;99.90
20560;DHT22;10438;51.454;6.718;2023-07-31T10:10:21;16.90;99.90
20560;DHT22;10438;51.454;6.718;2023-07-31T10:12:48;16.90;99.90
20560;DHT22;10438;51.454;6.718;2023-07-31T10:15:15;16.90;99.90
20560;DHT22;10438;51.454;6.718;2023-07-31T10:17:40;17.00;99.90
20560;DHT22;10438;51.454;6.718;2023-07-31T10:20:07;16.90;99.90
20560;DHT22;10438;51.454;6.718;2023-07-31T10:22:34;17.00;99.90
20560;DHT22;10438;51.454;6.718;2023-07-31T10:25:00;17.00;99.90
20560;DHT22;10438;51.454;6.718;2023-07-31T10:27:26;17.00;99.90
20560;DHT22;10438;51.454;6.718;2023-07-31T10:29:54;17.10;99.90
20560;DHT22;10438;51.454;6.718;2023-07-31T10:32:20;17.10;99.90
20560;DHT22;10438;51.454;6.718;2023-07-31T10:34:47;17.20;99.90
20560;DHT22;10438;51.454;6.718;2023-07-31T10:37:28;17.30;99.90
20560;DHT22;10438;51.454;6.718;2023-07-31T10:40:16;17.40;99.90
20560;DHT22;10438;51.454;6.718;2023-07-31T10:42:57;17.50;99.90
20560;DHT22;10438;51.454;6.718;2023-07-31T10:48:04;17.70;99.90
20560;DHT22;10438;51.454;6.718;2023-07-31T10:50:31;17.80;99.90
20560;DHT22;10438;51.454;6.718;2023-07-31T10:53:00;17.90;99.90
20560;DHT22;10438;51.454;6.718;2023-07-31T10:55:41;17.90;99.90
20560;DHT22;10438;51.454;6.718;2023-07-31T10:58:09;17.80;99.90
20560;DHT22;10438;51.454;6.718;2023-07-31T11:00:37;17.80;99.90
20560;DHT22;10438;51.454;6.718;2023-07-31T11:03:05;17.90;99.90
20560;DHT22;10438;51.454;6.718;2023-07-31T11:08:23;17.80;99.90
20560;DHT22;10438;51.454;6.718;2023-07-31T11:13:39;17.90;99.90
20560;DHT22;10438;51.454;6.718;2023-07-31T11:16:05;17.90;99.90
20560;DHT22;10438;51.454;6.718;2023-07-31T11:18:30;18.00;99.90
20560;DHT22;10438;51.454;6.718;2023-07-31T11:20:56;18.00;99.90
20560;DHT22;10438;51.454;6.718;2023-07-31T11:23:22;18.00;99.90
20560;DHT22;10438;51.454;6.718;2023-07-31T11:25:47;18.00;99.90
20560;DHT22;10438;51.454;6.718;2023-07-31T11:28:15;18.00;99.90
20560;DHT22;10438;51.454;6.718;2023-07-31T11:30:42;18.10;99.90
20560;DHT22;10438;51.454;6.718;2023-07-31T11:33:09;18.10;99.90
20560;DHT22;10438;51.454;6.718;2023-07-31T11:35:43;18.00;99.90
20560;DHT22;10438;51.454;6.718;2023-07-31T11:38:27;18.00;99.90
20560;DHT22;10438;51.454;6.718;2023-07-31T11:40:54;17.90;99.90
20560;DHT22;10438;51.454;6.718;2023-07-31T11:43:21;17.90;99.90
20560;DHT22;10438;51.454;6.718;2023-07-31T11:45:48;17.90;99.90
20560;DHT22;10438;51.454;6.718;2023-07-31T11:48:28;17.90;99.90
20560;DHT22;10438;51.454;6.718;2023-07-31T11:50:57;17.80;99.90
20560;DHT22;10438;51.454;6.718;2023-07-31T11:53:31;17.70;99.90
20560;DHT22;10438;51.454;6.718;2023-07-31T11:55:59;17.70;99.90
20560;DHT22;10438;51.454;6.718;2023-07-31T11:58:25;17.80;99.90
20560;DHT22;10438;51.454;6.718;2023-07-31T12:00:51;17.80;99.90
20560;DHT22;10438;51.454;6.718;2023-07-31T12:03:18;17.80;99.90
20560;DHT22;10438;51.454;6.718;2023-07-31T12:05:44;17.80;99.90
20560;DHT22;10438;51.454;6.718;2023-07-31T12:08:12;17.80;99.90
20560;DHT22;10438;51.454;6.718;2023-07-31T12:10:39;17.70;99.90
20560;DHT22;10438;51.454;6.718;2023-07-31T12:13:10;17.70;99.90
20560;DHT22;10438;51.454;6.718;2023-07-31T12:15:41;17.60;99.90
20560;DHT22;10438;51.454;6.718;2023-07-31T12:18:08;17.70;99.90
20560;DHT22;10438;51.454;6.718;2023-07-31T12:20:35;17.70;99.90
20560;DHT22;10438;51.454;6.718;2023-07-31T12:23:01;17.80;99.90
20560;DHT22;10438;51.454;6.718;2023-07-31T12:25:31;17.90;99.90
20560;DHT22;10438;51.454;6.718;2023-07-31T12:27:57;18.00;99.90
20560;DHT22;10438;51.454;6.718;2023-07-31T12:30:34;18.10;99.90
20560;DHT22;10438;51.454;6.718;2023-07-31T12:33:12;18.30;99.90
20560;DHT22;10438;51.454;6.718;2023-07-31T12:35:40;18.40;99.90
20560;DHT22;10438;51.454;6.718;2023-07-31T12:38:06;18.40;99.90
20560;DHT22;10438;51.454;6.718;2023-07-31T12:40:32;18.40;99.90
20560;DHT22;10438;51.454;6.718;2023-07-31T12:43:00;18.30;99.90
20560;DHT22;10438;51.454;6.718;2023-07-31T12:45:27;18.30;99.90
20560;DHT22;10438;51.454;6.718;2023-07-31T12:47:53;18.30;99.90
20560;DHT22;10438;51.454;6.718;2023-07-31T12:50:18;18.30;99.90
20560;DHT22;10438;51.454;6.718;2023-07-31T12:52:44;18.40;99.90
20560;DHT22;10438;51.454;6.718;2023-07-31T12:55:09;18.40;99.90
20560;DHT22;10438;51.454;6.718;2023-07-31T12:57:36;18.30;99.90
20560;DHT22;10438;51.454;6.718;2023-07-31T13:00:02;18.30;99.90
20560;DHT22;10438;51.454;6.718;2023-07-31T13:02:28;18.30;99.90
20560;DHT22;10438;51.454;6.718;2023-07-31T13:04:54;18.40;99.90
20560;DHT22;10438;51.454;6.718;2023-07-31T13:07:19;18.60;99.90
20560;DHT22;10438;51.454;6.718;2023-07-31T13:09:45;18.70;99.90
20560;DHT22;10438;51.454;6.718;2023-07-31T13:12:10;18.70;99.90
20560;DHT22;10438;51.454;6.718;2023-07-31T13:14:36;18.80;99.90
20560;DHT22;10438;51.454;6.718;2023-07-31T13:17:01;18.80;99.90
20560;DHT22;10438;51.454;6.718;2023-07-31T13:19:27;18.70;99.90
20560;DHT22;10438;51.454;6.718;2023-07-31T13:21:52;18.70;99.90
20560;DHT22;10438;51.454;6.718;2023-07-31T13:24:18;18.70;99.90
20560;DHT22;10438;51.454;6.718;2023-07-31T13:26:44;18.70;99.90
20560;DHT22;10438;51.454;6.718;2023-07-31T13:29:09;18.70;99.90
20560;DHT22;10438;51.454;6.718;2023-07-31T13:31:36;18.70;99.90
20560;DHT22;10438;51.454;6.718;2023-07-31T13:34:01;18.80;99.90
20560;DHT22;10438;51.454;6.718;2023-07-31T13:36:27;18.80;99.90
20560;DHT22;10438;51.454;6.718;2023-07-31T13:38:52;18.80;99.90
20560;DHT22;10438;51.454;6.718;2023-07-31T13:41:18;18.80;99.90
20560;DHT22;10438;51.454;6.718;2023-07-31T13:43:43;18.80;99.90
20560;DHT22;10438;51.454;6.718;2023-07-31T13:46:09;18.90;99.90
20560;DHT22;10438;51.454;6.718;2023-07-31T13:48:36;18.90;99.90
20560;DHT22;10438;51.454;6.718;2023-07-31T13:51:02;18.90;99.90
20560;DHT22;10438;51.454;6.718;2023-07-31T13:53:27;18.90;99.90
20560;DHT22;10438;51.454;6.718;2023-07-31T13:55:53;18.90;99.90
20560;DHT22;10438;51.454;6.718;2023-07-31T13:58:19;19.10;99.90
20560;DHT22;10438;51.454;6.718;2023-07-31T14:00:45;19.30;99.90
20560;DHT22;10438;51.454;6.718;2023-07-31T14:03:11;19.50;99.90
20560;DHT22;10438;51.454;6.718;2023-07-31T14:05:37;19.70;99.90
20560;DHT22;10438;51.454;6.718;2023-07-31T14:08:03;19.80;99.90
20560;DHT22;10438;51.454;6.718;2023-07-31T14:10:28;19.80;99.90
20560;DHT22;10438;51.454;6.718;2023-07-31T14:12:54;19.70;99.90
20560;DHT22;10438;51.454;6.718;2023-07-31T14:15:19;19.60;99.90
20560;DHT22;10438;51.454;6.718;2023-07-31T14:17:45;19.60;99.90
20560;DHT22;10438;51.454;6.718;2023-07-31T14:20:11;19.60;99.90
20560;DHT22;10438;51.454;6.718;2023-07-31T14:22:37;19.50;99.90
20560;DHT22;10438;51.454;6.718;2023-07-31T14:25:03;19.50;99.90
20560;DHT22;10438;51.454;6.718;2023-07-31T14:27:29;19.40;99.90
20560;DHT22;10438;51.454;6.718;2023-07-31T14:29:54;19.40;99.90
20560;DHT22;10438;51.454;6.718;2023-07-31T14:32:21;19.40;99.90
20560;DHT22;10438;51.454;6.718;2023-07-31T14:34:48;19.40;99.90
20560;DHT22;10438;51.454;6.718;2023-07-31T14:37:14;19.40;99.90
20560;DHT22;10438;51.454;6.718;2023-07-31T14:39:39;19.20;99.90
20560;DHT22;10438;51.454;6.718;2023-07-31T14:42:05;19.20;99.90
20560;DHT22;10438;51.454;6.718;2023-07-31T14:44:31;19.10;99.90
20560;DHT22;10438;51.454;6.718;2023-07-31T14:46:56;19.10;99.90
20560;DHT22;10438;51.454;6.718;2023-07-31T14:49:22;19.10;99.90
20560;DHT22;10438;51.454;6.718;2023-07-31T14:51:47;19.00;99.90
20560;DHT22;10438;51.454;6.718;2023-07-31T14:54:13;19.00;99.90
20560;DHT22;10438;51.454;6.718;2023-07-31T14:56:38;18.90;99.90
20560;DHT22;10438;51.454;6.718;2023-07-31T14:59:04;18.90;99.90
20560;DHT22;10438;51.454;6.718;2023-07-31T15:01:29;18.90;99.90
20560;DHT22;10438;51.454;6.718;2023-07-31T15:03:55;18.90;99.90
20560;DHT22;10438;51.454;6.718;2023-07-31T15:06:20;18.90;99.90
20560;DHT22;10438;51.454;6.718;2023-07-31T15:08:46;19.00;99.90
20560;DHT22;10438;51.454;6.718;2023-07-31T15:11:11;19.00;99.90
20560;DHT22;10438;51.454;6.718;2023-07-31T15:13:37;19.00;99.90
20560;DHT22;10438;51.454;6.718;2023-07-31T15:16:02;19.00;99.90
20560;DHT22;10438;51.454;6.718;2023-07-31T15:18:28;19.10;99.90
20560;DHT22;10438;51.454;6.718;2023-07-31T15:20:53;19.20;99.90
20560;DHT22;10438;51.454;6.718;2023-07-31T15:23:19;19.20;99.90
20560;DHT22;10438;51.454;6.718;2023-07-31T15:25:44;19.20;99.90
20560;DHT22;10438;51.454;6.718;2023-07-31T15:28:10;19.20;99.90
20560;DHT22;10438;51.454;6.718;2023-07-31T15:30:36;19.20;99.90
20560;DHT22;10438;51.454;6.718;2023-07-31T15:33:03;19.20;99.90
20560;DHT22;10438;51.454;6.718;2023-07-31T15:35:28;19.20;99.90
20560;DHT22;10438;51.454;6.718;2023-07-31T15:37:54;19.20;99.90
20560;DHT22;10438;51.454;6.718;2023-07-31T15:40:19;19.20;99.90
20560;DHT22;10438;51.454;6.718;2023-07-31T15:42:45;19.30;99.90